Schwerstedt, Germany

09:26 AM CEST am 29. März 2017 (GMT +0200)
In der Langenburger Gasse | | Change Station

Höhe 482 ft 51.14 °N, 11.00 °E | Updated 3 minutes ago

Teils Wolkig
Teils Wolkig
58.3 °F
gefühlte 58.3 °F
N
3.1
Wind Wechselnd Wind aus West-Nordwest
Gusts 11.2 mph

Heute
Max. -- | schwach -- °F
--% Regenrisiko
Gestern
Max. -- | schwach -- °F
Precip. -- inch
Druck 30.21 inch
Sichtweite -9999.0 Meilen
Wolken
Taupunkt 46 °F
Feuchtigkeit 64%
Regen 0.00 inch
Schneehöhe Nicht verfügbar..
6:58 AM 7:44 PM
Neumond, 2% visible
METAR EDDE 290720Z 25015KT CAVOK 13/08 Q1023 TEMPO 26015G25KT
Druck 30.21 inch
Sichtweite -9999.0 Meilen
Wolken
Taupunkt 46 °F
Feuchtigkeit 64%
Regen 0.00 inch
Schneehöhe Nicht verfügbar..
6:58 AM 7:44 PM
Neumond, 2% visible
METAR EDDE 290720Z 25015KT CAVOK 13/08 Q1023 TEMPO 26015G25KT

Get Severe Weather Alerts

Thanks for signing up!

Be on the lookout for a verification email in your inbox.

You'll start receiving the daily forecast at 8 AM.

×

10-Day Weather Forecast

×

Almanac

Astronomie

Mar. 29, 2017 Aufgang Untergang
Genaue Zeit
Bürgerliche Dämmerung
Nautische Dämmerung
Astronomische Dämmerung
Mond
Länge des sichtbaren Lichts
Tageslänge
Tomorrow will be .
, % of the Moon is Illuminated

Heutige Rekorde

Country Highs Country Lows

Community

WunderPhotos

Upload Photos

1,962,540 Fotos hochgeladen!

WunderBlog® & News

Nearby

Luftqualität

  Luftqualität LQ Index Schadstoff
Not available.

Schneehöhe

Station Depth Höhe

Erdbebenaktivität

Stadt Distance Mag. Time & Date
Minimum magnitude displayed is 2.5.

Erdbebenaktivität

Stadt Distance Mag. Time & Date
Minimum magnitude displayed is 2.5.

küstennahe Wassertemperaturen

Ort Temperatur

Stations

Wetterstationen in der Umgebung

Stationsstandort Temp. Windchill Taupunkt Feuchtigkeit Wind Precip. Höhe Aktualisiert Art